sensor_id;sensor_type;location;lat;lon;timestamp;temperature;humidity
42097;DHT22;27754;45.414;11.084;2024-01-15T00:01:48;3.10;92.70
42097;DHT22;27754;45.414;11.084;2024-01-15T00:04:15;3.10;92.60
42097;DHT22;27754;45.414;11.084;2024-01-15T00:06:42;3.00;92.70
42097;DHT22;27754;45.414;11.084;2024-01-15T00:09:09;3.00;92.80
42097;DHT22;27754;45.414;11.084;2024-01-15T00:11:37;3.10;92.80
42097;DHT22;27754;45.414;11.084;2024-01-15T00:14:04;3.10;92.80
42097;DHT22;27754;45.414;11.084;2024-01-15T00:16:31;3.00;92.80
42097;DHT22;27754;45.414;11.084;2024-01-15T00:18:58;3.00;92.80
42097;DHT22;27754;45.414;11.084;2024-01-15T00:21:25;3.00;92.70
42097;DHT22;27754;45.414;11.084;2024-01-15T00:23:52;2.90;92.70
42097;DHT22;27754;45.414;11.084;2024-01-15T00:26:19;2.90;92.80
42097;DHT22;27754;45.414;11.084;2024-01-15T00:28:46;2.90;92.90
42097;DHT22;27754;45.414;11.084;2024-01-15T00:31:16;2.90;93.00
42097;DHT22;27754;45.414;11.084;2024-01-15T00:33:44;2.90;93.00
42097;DHT22;27754;45.414;11.084;2024-01-15T00:36:11;2.90;93.00
42097;DHT22;27754;45.414;11.084;2024-01-15T00:38:38;2.90;93.00
42097;DHT22;27754;45.414;11.084;2024-01-15T00:41:05;3.00;93.00
42097;DHT22;27754;45.414;11.084;2024-01-15T00:43:32;2.90;93.00
42097;DHT22;27754;45.414;11.084;2024-01-15T00:46:02;2.90;93.00
42097;DHT22;27754;45.414;11.084;2024-01-15T00:48:29;2.90;92.60
42097;DHT22;27754;45.414;11.084;2024-01-15T00:50:56;2.90;92.70
42097;DHT22;27754;45.414;11.084;2024-01-15T00:53:23;2.90;92.90
42097;DHT22;27754;45.414;11.084;2024-01-15T00:55:50;2.90;93.10
42097;DHT22;27754;45.414;11.084;2024-01-15T00:58:18;2.90;93.00
42097;DHT22;27754;45.414;11.084;2024-01-15T01:00:45;2.90;93.00
42097;DHT22;27754;45.414;11.084;2024-01-15T01:03:13;2.80;93.10
42097;DHT22;27754;45.414;11.084;2024-01-15T01:05:40;2.80;93.20
42097;DHT22;27754;45.414;11.084;2024-01-15T01:08:07;2.90;93.20
42097;DHT22;27754;45.414;11.084;2024-01-15T01:10:34;2.80;93.30
42097;DHT22;27754;45.414;11.084;2024-01-15T01:13:01;2.90;93.50
42097;DHT22;27754;45.414;11.084;2024-01-15T01:15:28;2.90;93.70
42097;DHT22;27754;45.414;11.084;2024-01-15T01:17:55;2.90;93.70
42097;DHT22;27754;45.414;11.084;2024-01-15T01:20:22;2.90;93.80
42097;DHT22;27754;45.414;11.084;2024-01-15T01:22:49;2.90;93.90
42097;DHT22;27754;45.414;11.084;2024-01-15T01:25:16;2.90;93.90
42097;DHT22;27754;45.414;11.084;2024-01-15T01:27:43;3.00;93.90
42097;DHT22;27754;45.414;11.084;2024-01-15T01:30:10;3.00;93.80
42097;DHT22;27754;45.414;11.084;2024-01-15T01:32:38;2.90;93.70
42097;DHT22;27754;45.414;11.084;2024-01-15T01:35:05;2.90;93.60
42097;DHT22;27754;45.414;11.084;2024-01-15T01:37:32;2.90;93.60
42097;DHT22;27754;45.414;11.084;2024-01-15T01:40:00;2.90;93.60
42097;DHT22;27754;45.414;11.084;2024-01-15T01:42:27;2.90;93.70
42097;DHT22;27754;45.414;11.084;2024-01-15T01:44:54;2.90;93.70
42097;DHT22;27754;45.414;11.084;2024-01-15T01:47:21;2.90;93.80
42097;DHT22;27754;45.414;11.084;2024-01-15T01:49:48;3.00;94.00
42097;DHT22;27754;45.414;11.084;2024-01-15T01:52:16;3.10;93.80
42097;DHT22;27754;45.414;11.084;2024-01-15T01:54:43;3.00;93.70
42097;DHT22;27754;45.414;11.084;2024-01-15T01:57:10;3.00;93.70
42097;DHT22;27754;45.414;11.084;2024-01-15T01:59:38;3.00;93.70
42097;DHT22;27754;45.414;11.084;2024-01-15T02:02:06;3.00;93.80
42097;DHT22;27754;45.414;11.084;2024-01-15T02:04:33;2.90;93.80
42097;DHT22;27754;45.414;11.084;2024-01-15T02:07:00;2.90;93.90
42097;DHT22;27754;45.414;11.084;2024-01-15T02:09:27;2.90;93.90
42097;DHT22;27754;45.414;11.084;2024-01-15T02:11:55;2.90;94.10
42097;DHT22;27754;45.414;11.084;2024-01-15T02:14:22;2.90;94.10
42097;DHT22;27754;45.414;11.084;2024-01-15T02:16:49;2.90;94.10
42097;DHT22;27754;45.414;11.084;2024-01-15T02:19:17;2.80;94.20
42097;DHT22;27754;45.414;11.084;2024-01-15T02:21:44;2.80;94.10
42097;DHT22;27754;45.414;11.084;2024-01-15T02:24:12;2.80;94.10
42097;DHT22;27754;45.414;11.084;2024-01-15T02:26:39;2.80;94.20
42097;DHT22;27754;45.414;11.084;2024-01-15T02:29:07;2.80;94.20
42097;DHT22;27754;45.414;11.084;2024-01-15T02:31:37;2.70;94.20
42097;DHT22;27754;45.414;11.084;2024-01-15T02:34:05;2.70;94.20
42097;DHT22;27754;45.414;11.084;2024-01-15T02:36:32;2.60;94.10
42097;DHT22;27754;45.414;11.084;2024-01-15T02:38:59;2.50;94.10
42097;DHT22;27754;45.414;11.084;2024-01-15T02:41:26;2.40;94.10
42097;DHT22;27754;45.414;11.084;2024-01-15T02:43:53;2.40;94.10
42097;DHT22;27754;45.414;11.084;2024-01-15T02:46:20;2.40;94.10
42097;DHT22;27754;45.414;11.084;2024-01-15T02:48:47;2.40;94.30
42097;DHT22;27754;45.414;11.084;2024-01-15T02:51:14;2.40;94.30
42097;DHT22;27754;45.414;11.084;2024-01-15T02:53:41;2.40;94.30
42097;DHT22;27754;45.414;11.084;2024-01-15T02:56:08;2.40;94.30
42097;DHT22;27754;45.414;11.084;2024-01-15T02:58:35;2.40;94.30
42097;DHT22;27754;45.414;11.084;2024-01-15T03:01:02;2.40;94.40
42097;DHT22;27754;45.414;11.084;2024-01-15T03:03:30;2.50;94.40
42097;DHT22;27754;45.414;11.084;2024-01-15T03:05:57;2.50;94.50
42097;DHT22;27754;45.414;11.084;2024-01-15T03:08:24;2.50;94.50
42097;DHT22;27754;45.414;11.084;2024-01-15T03:10:51;2.50;94.40
42097;DHT22;27754;45.414;11.084;2024-01-15T03:13:18;2.60;94.50
42097;DHT22;27754;45.414;11.084;2024-01-15T03:15:46;2.60;94.50
42097;DHT22;27754;45.414;11.084;2024-01-15T03:18:13;2.60;94.40
42097;DHT22;27754;45.414;11.084;2024-01-15T03:20:40;2.60;94.30
42097;DHT22;27754;45.414;11.084;2024-01-15T03:23:07;2.40;94.10
42097;DHT22;27754;45.414;11.084;2024-01-15T03:25:34;2.40;94.10
42097;DHT22;27754;45.414;11.084;2024-01-15T03:28:01;2.40;94.10
42097;DHT22;27754;45.414;11.084;2024-01-15T03:30:28;2.30;94.20
42097;DHT22;27754;45.414;11.084;2024-01-15T03:32:55;2.20;93.90
42097;DHT22;27754;45.414;11.084;2024-01-15T03:35:22;2.20;94.00
42097;DHT22;27754;45.414;11.084;2024-01-15T03:37:49;2.20;94.00
42097;DHT22;27754;45.414;11.084;2024-01-15T03:40:16;2.10;94.00
42097;DHT22;27754;45.414;11.084;2024-01-15T03:42:48;2.20;94.20
42097;DHT22;27754;45.414;11.084;2024-01-15T03:45:16;2.10;94.10
42097;DHT22;27754;45.414;11.084;2024-01-15T03:47:43;2.20;94.40
42097;DHT22;27754;45.414;11.084;2024-01-15T03:50:10;2.20;94.30
42097;DHT22;27754;45.414;11.084;2024-01-15T03:52:37;2.20;94.20
42097;DHT22;27754;45.414;11.084;2024-01-15T03:55:05;2.20;94.30
42097;DHT22;27754;45.414;11.084;2024-01-15T03:57:32;2.10;94.30
42097;DHT22;27754;45.414;11.084;2024-01-15T03:59:59;2.20;94.30
42097;DHT22;27754;45.414;11.084;2024-01-15T04:02:26;2.20;94.20
42097;DHT22;27754;45.414;11.084;2024-01-15T04:04:53;2.20;94.30
42097;DHT22;27754;45.414;11.084;2024-01-15T04:07:20;2.20;94.20
42097;DHT22;27754;45.414;11.084;2024-01-15T04:09:47;2.10;94.20
42097;DHT22;27754;45.414;11.084;2024-01-15T04:12:14;2.20;94.30
42097;DHT22;27754;45.414;11.084;2024-01-15T04:14:41;2.20;94.20
42097;DHT22;27754;45.414;11.084;2024-01-15T04:17:08;2.20;94.30
42097;DHT22;27754;45.414;11.084;2024-01-15T04:19:35;2.40;94.50
42097;DHT22;27754;45.414;11.084;2024-01-15T04:22:02;2.40;94.30
42097;DHT22;27754;45.414;11.084;2024-01-15T04:24:31;2.40;94.20
42097;DHT22;27754;45.414;11.084;2024-01-15T04:26:59;2.40;94.10
42097;DHT22;27754;45.414;11.084;2024-01-15T04:29:26;2.40;94.00
42097;DHT22;27754;45.414;11.084;2024-01-15T04:31:53;2.40;94.00
42097;DHT22;27754;45.414;11.084;2024-01-15T04:34:20;2.40;93.90
42097;DHT22;27754;45.414;11.084;2024-01-15T04:36:47;2.30;93.80
42097;DHT22;27754;45.414;11.084;2024-01-15T04:39:14;2.30;93.90
42097;DHT22;27754;45.414;11.084;2024-01-15T04:41:41;2.40;93.90
42097;DHT22;27754;45.414;11.084;2024-01-15T04:44:08;2.30;93.90
42097;DHT22;27754;45.414;11.084;2024-01-15T04:46:35;2.30;93.90
42097;DHT22;27754;45.414;11.084;2024-01-15T04:49:02;2.30;93.80
42097;DHT22;27754;45.414;11.084;2024-01-15T04:51:29;2.40;93.80
42097;DHT22;27754;45.414;11.084;2024-01-15T04:53:56;2.40;93.60
42097;DHT22;27754;45.414;11.084;2024-01-15T04:56:25;2.40;93.60
42097;DHT22;27754;45.414;11.084;2024-01-15T04:58:52;2.40;93.70
42097;DHT22;27754;45.414;11.084;2024-01-15T05:01:18;2.40;93.70
42097;DHT22;27754;45.414;11.084;2024-01-15T05:03:46;2.50;93.80
42097;DHT22;27754;45.414;11.084;2024-01-15T05:06:13;2.50;93.70
42097;DHT22;27754;45.414;11.084;2024-01-15T05:08:40;2.50;93.70
42097;DHT22;27754;45.414;11.084;2024-01-15T05:11:07;2.50;93.70
42097;DHT22;27754;45.414;11.084;2024-01-15T05:13:34;2.50;93.60
42097;DHT22;27754;45.414;11.084;2024-01-15T05:16:01;2.50;93.70
42097;DHT22;27754;45.414;11.084;2024-01-15T05:18:28;2.50;93.60
42097;DHT22;27754;45.414;11.084;2024-01-15T05:20:55;2.40;93.60
42097;DHT22;27754;45.414;11.084;2024-01-15T05:23:22;2.40;93.60
42097;DHT22;27754;45.414;11.084;2024-01-15T05:25:49;2.30;93.60
42097;DHT22;27754;45.414;11.084;2024-01-15T05:28:16;2.30;93.60
42097;DHT22;27754;45.414;11.084;2024-01-15T05:30:43;2.20;93.50
42097;DHT22;27754;45.414;11.084;2024-01-15T05:33:10;2.20;93.60
42097;DHT22;27754;45.414;11.084;2024-01-15T05:35:37;2.40;93.90
42097;DHT22;27754;45.414;11.084;2024-01-15T05:38:04;2.40;93.80
42097;DHT22;27754;45.414;11.084;2024-01-15T05:40:31;2.40;93.70
42097;DHT22;27754;45.414;11.084;2024-01-15T05:42:58;2.40;93.70
42097;DHT22;27754;45.414;11.084;2024-01-15T05:45:30;2.40;93.70
42097;DHT22;27754;45.414;11.084;2024-01-15T05:47:57;2.40;93.80
42097;DHT22;27754;45.414;11.084;2024-01-15T05:50:24;2.50;93.90
42097;DHT22;27754;45.414;11.084;2024-01-15T05:52:51;2.60;93.70
42097;DHT22;27754;45.414;11.084;2024-01-15T05:55:18;2.50;93.50
42097;DHT22;27754;45.414;11.084;2024-01-15T05:57:45;2.50;93.50
42097;DHT22;27754;45.414;11.084;2024-01-15T06:00:13;2.40;93.60
42097;DHT22;27754;45.414;11.084;2024-01-15T06:02:40;2.40;93.50
42097;DHT22;27754;45.414;11.084;2024-01-15T06:05:07;2.40;93.40
42097;DHT22;27754;45.414;11.084;2024-01-15T06:07:35;2.40;93.60
42097;DHT22;27754;45.414;11.084;2024-01-15T06:10:03;2.40;93.50
42097;DHT22;27754;45.414;11.084;2024-01-15T06:12:31;2.40;93.50
42097;DHT22;27754;45.414;11.084;2024-01-15T06:15:00;2.30;93.70
42097;DHT22;27754;45.414;11.084;2024-01-15T06:17:27;2.40;93.80
42097;DHT22;27754;45.414;11.084;2024-01-15T06:19:54;2.40;93.80
42097;DHT22;27754;45.414;11.084;2024-01-15T06:22:21;2.40;93.70
42097;DHT22;27754;45.414;11.084;2024-01-15T06:24:48;2.40;93.70
42097;DHT22;27754;45.414;11.084;2024-01-15T06:27:15;2.40;93.60
42097;DHT22;27754;45.414;11.084;2024-01-15T06:29:45;2.50;93.60
42097;DHT22;27754;45.414;11.084;2024-01-15T06:32:16;2.50;93.50
42097;DHT22;27754;45.414;11.084;2024-01-15T06:34:43;2.50;93.50
42097;DHT22;27754;45.414;11.084;2024-01-15T06:37:11;2.50;93.30
42097;DHT22;27754;45.414;11.084;2024-01-15T06:39:38;2.50;93.30
42097;DHT22;27754;45.414;11.084;2024-01-15T06:42:05;2.50;93.30
42097;DHT22;27754;45.414;11.084;2024-01-15T06:44:32;2.50;93.30
42097;DHT22;27754;45.414;11.084;2024-01-15T06:46:59;2.50;93.40
42097;DHT22;27754;45.414;11.084;2024-01-15T06:49:29;2.50;93.30
42097;DHT22;27754;45.414;11.084;2024-01-15T06:51:56;2.50;93.40
42097;DHT22;27754;45.414;11.084;2024-01-15T06:54:23;2.50;93.50
42097;DHT22;27754;45.414;11.084;2024-01-15T06:56:50;2.50;93.50
42097;DHT22;27754;45.414;11.084;2024-01-15T06:59:17;2.60;93.60
42097;DHT22;27754;45.414;11.084;2024-01-15T07:01:46;2.50;93.50
42097;DHT22;27754;45.414;11.084;2024-01-15T07:04:13;2.60;93.50
42097;DHT22;27754;45.414;11.084;2024-01-15T07:06:40;2.70;93.50
42097;DHT22;27754;45.414;11.084;2024-01-15T07:09:07;2.70;93.40
42097;DHT22;27754;45.414;11.084;2024-01-15T07:11:35;2.90;93.10
42097;DHT22;27754;45.414;11.084;2024-01-15T07:14:02;2.80;92.80
42097;DHT22;27754;45.414;11.084;2024-01-15T07:16:30;2.90;92.80
42097;DHT22;27754;45.414;11.084;2024-01-15T07:19:04;2.90;92.70
42097;DHT22;27754;45.414;11.084;2024-01-15T07:21:31;2.90;92.60
42097;DHT22;27754;45.414;11.084;2024-01-15T07:23:58;2.90;92.40
42097;DHT22;27754;45.414;11.084;2024-01-15T07:26:25;3.00;92.50
42097;DHT22;27754;45.414;11.084;2024-01-15T07:28:52;3.00;92.30
42097;DHT22;27754;45.414;11.084;2024-01-15T07:31:19;2.90;92.40
42097;DHT22;27754;45.414;11.084;2024-01-15T07:33:46;3.00;92.50
42097;DHT22;27754;45.414;11.084;2024-01-15T07:36:14;3.00;92.60
42097;DHT22;27754;45.414;11.084;2024-01-15T07:38:41;3.10;92.60
42097;DHT22;27754;45.414;11.084;2024-01-15T07:41:09;3.10;92.40
42097;DHT22;27754;45.414;11.084;2024-01-15T07:43:36;3.10;92.40
42097;DHT22;27754;45.414;11.084;2024-01-15T07:46:04;3.20;92.30
42097;DHT22;27754;45.414;11.084;2024-01-15T07:48:31;3.10;92.00
42097;DHT22;27754;45.414;11.084;2024-01-15T07:50:58;3.10;92.00
42097;DHT22;27754;45.414;11.084;2024-01-15T07:53:25;3.20;92.10
42097;DHT22;27754;45.414;11.084;2024-01-15T07:55:52;3.10;91.90
42097;DHT22;27754;45.414;11.084;2024-01-15T07:58:19;3.00;92.00
42097;DHT22;27754;45.414;11.084;2024-01-15T08:00:46;3.10;92.20
42097;DHT22;27754;45.414;11.084;2024-01-15T08:03:13;3.10;92.30
42097;DHT22;27754;45.414;11.084;2024-01-15T08:05:42;3.10;91.80
42097;DHT22;27754;45.414;11.084;2024-01-15T08:08:09;3.00;91.70
42097;DHT22;27754;45.414;11.084;2024-01-15T08:10:36;2.90;91.60
42097;DHT22;27754;45.414;11.084;2024-01-15T08:13:03;2.80;91.40
42097;DHT22;27754;45.414;11.084;2024-01-15T08:15:30;2.90;91.60
42097;DHT22;27754;45.414;11.084;2024-01-15T08:17:57;2.90;91.60
42097;DHT22;27754;45.414;11.084;2024-01-15T08:20:26;2.90;91.70
42097;DHT22;27754;45.414;11.084;2024-01-15T08:22:53;2.90;91.40
42097;DHT22;27754;45.414;11.084;2024-01-15T08:25:20;2.90;91.30
42097;DHT22;27754;45.414;11.084;2024-01-15T08:27:47;2.90;91.40
42097;DHT22;27754;45.414;11.084;2024-01-15T08:30:14;2.90;91.30
42097;DHT22;27754;45.414;11.084;2024-01-15T08:32:41;3.00;91.50
42097;DHT22;27754;45.414;11.084;2024-01-15T08:35:10;3.20;91.60
42097;DHT22;27754;45.414;11.084;2024-01-15T08:37:38;3.20;91.30
42097;DHT22;27754;45.414;11.084;2024-01-15T08:40:05;3.30;91.20
42097;DHT22;27754;45.414;11.084;2024-01-15T08:42:33;3.40;91.30
42097;DHT22;27754;45.414;11.084;2024-01-15T08:45:00;3.40;90.90
42097;DHT22;27754;45.414;11.084;2024-01-15T08:47:27;3.50;90.70
42097;DHT22;27754;45.414;11.084;2024-01-15T08:49:54;3.60;90.80
42097;DHT22;27754;45.414;11.084;2024-01-15T08:52:21;3.60;90.60
42097;DHT22;27754;45.414;11.084;2024-01-15T08:54:48;3.60;90.70
42097;DHT22;27754;45.414;11.084;2024-01-15T08:57:15;3.70;90.60
42097;DHT22;27754;45.414;11.084;2024-01-15T08:59:42;3.80;90.40
42097;DHT22;27754;45.414;11.084;2024-01-15T09:02:09;3.80;90.30
42097;DHT22;27754;45.414;11.084;2024-01-15T09:04:36;3.90;90.10
42097;DHT22;27754;45.414;11.084;2024-01-15T09:07:03;3.90;89.90
42097;DHT22;27754;45.414;11.084;2024-01-15T09:09:30;3.90;89.70
42097;DHT22;27754;45.414;11.084;2024-01-15T09:11:58;3.90;89.60
42097;DHT22;27754;45.414;11.084;2024-01-15T09:14:25;4.00;89.50
42097;DHT22;27754;45.414;11.084;2024-01-15T09:17:04;4.00;89.30
42097;DHT22;27754;45.414;11.084;2024-01-15T09:19:31;4.10;89.20
42097;DHT22;27754;45.414;11.084;2024-01-15T09:21:59;4.10;88.30
42097;DHT22;27754;45.414;11.084;2024-01-15T09:24:26;4.10;88.20
42097;DHT22;27754;45.414;11.084;2024-01-15T09:26:55;4.30;88.00
42097;DHT22;27754;45.414;11.084;2024-01-15T09:29:23;4.40;88.20
42097;DHT22;27754;45.414;11.084;2024-01-15T09:31:51;4.50;87.70
42097;DHT22;27754;45.414;11.084;2024-01-15T09:34:19;4.50;86.60
42097;DHT22;27754;45.414;11.084;2024-01-15T09:36:46;4.50;86.10
42097;DHT22;27754;45.414;11.084;2024-01-15T09:39:14;4.60;85.90
42097;DHT22;27754;45.414;11.084;2024-01-15T09:41:43;4.80;86.10
42097;DHT22;27754;45.414;11.084;2024-01-15T09:44:10;4.80;85.40
42097;DHT22;27754;45.414;11.084;2024-01-15T09:46:39;5.00;85.40
42097;DHT22;27754;45.414;11.084;2024-01-15T09:49:06;5.10;84.70
42097;DHT22;27754;45.414;11.084;2024-01-15T09:51:35;5.10;84.50
42097;DHT22;27754;45.414;11.084;2024-01-15T09:54:03;5.20;84.30
42097;DHT22;27754;45.414;11.084;2024-01-15T09:56:31;5.30;83.90
42097;DHT22;27754;45.414;11.084;2024-01-15T09:58:58;5.30;83.30
42097;DHT22;27754;45.414;11.084;2024-01-15T10:01:25;5.10;83.10
42097;DHT22;27754;45.414;11.084;2024-01-15T10:03:54;5.30;83.70
42097;DHT22;27754;45.414;11.084;2024-01-15T10:06:22;5.40;83.00
42097;DHT22;27754;45.414;11.084;2024-01-15T10:08:51;5.60;83.10
42097;DHT22;27754;45.414;11.084;2024-01-15T10:11:18;5.80;82.70
42097;DHT22;27754;45.414;11.084;2024-01-15T10:13:48;5.90;81.90
42097;DHT22;27754;45.414;11.084;2024-01-15T10:16:23;6.10;82.10
42097;DHT22;27754;45.414;11.084;2024-01-15T10:18:51;6.10;81.40
42097;DHT22;27754;45.414;11.084;2024-01-15T10:21:18;6.20;81.20
42097;DHT22;27754;45.414;11.084;2024-01-15T10:23:46;6.20;81.30
42097;DHT22;27754;45.414;11.084;2024-01-15T10:26:13;6.40;81.10
42097;DHT22;27754;45.414;11.084;2024-01-15T10:28:44;6.40;81.00
42097;DHT22;27754;45.414;11.084;2024-01-15T10:31:12;6.40;80.70
42097;DHT22;27754;45.414;11.084;2024-01-15T10:33:39;6.40;80.90
42097;DHT22;27754;45.414;11.084;2024-01-15T10:36:09;6.40;81.40
42097;DHT22;27754;45.414;11.084;2024-01-15T10:38:38;6.40;81.10
42097;DHT22;27754;45.414;11.084;2024-01-15T10:41:05;6.40;81.60
42097;DHT22;27754;45.414;11.084;2024-01-15T10:43:32;6.30;81.50
42097;DHT22;27754;45.414;11.084;2024-01-15T10:45:59;6.40;81.50
42097;DHT22;27754;45.414;11.084;2024-01-15T10:48:27;6.40;80.80
42097;DHT22;27754;45.414;11.084;2024-01-15T10:50:56;6.50;81.70
42097;DHT22;27754;45.414;11.084;2024-01-15T10:53:24;6.60;81.00
42097;DHT22;27754;45.414;11.084;2024-01-15T10:55:52;6.70;80.80
42097;DHT22;27754;45.414;11.084;2024-01-15T10:58:20;6.80;80.70
42097;DHT22;27754;45.414;11.084;2024-01-15T11:00:47;6.90;80.40
42097;DHT22;27754;45.414;11.084;2024-01-15T11:03:15;7.10;80.30
42097;DHT22;27754;45.414;11.084;2024-01-15T11:05:44;7.10;80.00
42097;DHT22;27754;45.414;11.084;2024-01-15T11:08:11;7.20;80.40
42097;DHT22;27754;45.414;11.084;2024-01-15T11:13:10;7.30;79.10
42097;DHT22;27754;45.414;11.084;2024-01-15T11:16:02;7.30;79.40
42097;DHT22;27754;45.414;11.084;2024-01-15T11:18:31;7.20;80.40
42097;DHT22;27754;45.414;11.084;2024-01-15T11:26:36;7.30;80.40
42097;DHT22;27754;45.414;11.084;2024-01-15T11:29:10;7.30;80.20
42097;DHT22;27754;45.414;11.084;2024-01-15T11:34:16;7.40;80.00
42097;DHT22;27754;45.414;11.084;2024-01-15T11:42:03;7.60;79.70
42097;DHT22;27754;45.414;11.084;2024-01-15T11:44:30;7.60;79.70
42097;DHT22;27754;45.414;11.084;2024-01-15T11:47:02;7.60;79.30
42097;DHT22;27754;45.414;11.084;2024-01-15T11:52:21;7.60;79.60
42097;DHT22;27754;45.414;11.084;2024-01-15T11:55:01;7.60;80.00
42097;DHT22;27754;45.414;11.084;2024-01-15T11:57:51;7.60;79.90
42097;DHT22;27754;45.414;11.084;2024-01-15T12:00:19;7.70;79.90
42097;DHT22;27754;45.414;11.084;2024-01-15T12:02:46;7.70;80.20
42097;DHT22;27754;45.414;11.084;2024-01-15T12:05:19;7.90;79.80
42097;DHT22;27754;45.414;11.084;2024-01-15T12:07:48;7.90;79.10
42097;DHT22;27754;45.414;11.084;2024-01-15T12:10:17;7.90;79.00
42097;DHT22;27754;45.414;11.084;2024-01-15T12:12:55;7.80;78.90
42097;DHT22;27754;45.414;11.084;2024-01-15T12:15:24;7.60;79.30
42097;DHT22;27754;45.414;11.084;2024-01-15T12:17:53;7.50;79.40
42097;DHT22;27754;45.414;11.084;2024-01-15T12:20:21;7.40;80.40
42097;DHT22;27754;45.414;11.084;2024-01-15T12:22:49;7.50;80.30
42097;DHT22;27754;45.414;11.084;2024-01-15T12:25:27;7.50;80.70
42097;DHT22;27754;45.414;11.084;2024-01-15T12:27:56;7.50;80.70
42097;DHT22;27754;45.414;11.084;2024-01-15T12:30:23;7.50;80.30
42097;DHT22;27754;45.414;11.084;2024-01-15T12:32:51;7.40;80.60
42097;DHT22;27754;45.414;11.084;2024-01-15T12:35:18;7.50;80.50
42097;DHT22;27754;45.414;11.084;2024-01-15T12:37:45;7.60;80.70
42097;DHT22;27754;45.414;11.084;2024-01-15T12:40:19;7.50;80.40
42097;DHT22;27754;45.414;11.084;2024-01-15T12:42:46;7.40;80.10
42097;DHT22;27754;45.414;11.084;2024-01-15T12:45:14;7.50;81.00
42097;DHT22;27754;45.414;11.084;2024-01-15T12:47:42;7.40;81.00
42097;DHT22;27754;45.414;11.084;2024-01-15T12:50:10;7.40;81.10
42097;DHT22;27754;45.414;11.084;2024-01-15T12:52:45;7.30;81.00
42097;DHT22;27754;45.414;11.084;2024-01-15T12:55:13;7.40;81.20
42097;DHT22;27754;45.414;11.084;2024-01-15T12:57:41;7.50;81.20
42097;DHT22;27754;45.414;11.084;2024-01-15T13:00:08;7.50;81.10
42097;DHT22;27754;45.414;11.084;2024-01-15T13:02:41;7.60;81.40
42097;DHT22;27754;45.414;11.084;2024-01-15T13:05:10;7.60;81.30
42097;DHT22;27754;45.414;11.084;2024-01-15T13:07:40;7.60;80.70
42097;DHT22;27754;45.414;11.084;2024-01-15T13:10:07;7.60;80.90
42097;DHT22;27754;45.414;11.084;2024-01-15T13:12:37;7.70;80.30
42097;DHT22;27754;45.414;11.084;2024-01-15T13:15:05;7.70;80.40
42097;DHT22;27754;45.414;11.084;2024-01-15T13:17:36;7.80;80.30
42097;DHT22;27754;45.414;11.084;2024-01-15T13:20:03;7.80;80.00
42097;DHT22;27754;45.414;11.084;2024-01-15T13:22:31;7.80;79.70
42097;DHT22;27754;45.414;11.084;2024-01-15T13:25:00;7.80;79.40
42097;DHT22;27754;45.414;11.084;2024-01-15T13:27:27;7.80;79.60
42097;DHT22;27754;45.414;11.084;2024-01-15T13:29:55;7.80;79.50
42097;DHT22;27754;45.414;11.084;2024-01-15T13:32:25;7.90;79.40
42097;DHT22;27754;45.414;11.084;2024-01-15T13:34:56;7.90;79.60
42097;DHT22;27754;45.414;11.084;2024-01-15T13:37:24;7.80;79.80
42097;DHT22;27754;45.414;11.084;2024-01-15T13:39:52;7.80;79.70
42097;DHT22;27754;45.414;11.084;2024-01-15T13:42:20;7.80;79.70
42097;DHT22;27754;45.414;11.084;2024-01-15T13:44:50;7.80;79.50
42097;DHT22;27754;45.414;11.084;2024-01-15T13:47:18;7.80;79.70
42097;DHT22;27754;45.414;11.084;2024-01-15T13:49:45;7.80;79.80
42097;DHT22;27754;45.414;11.084;2024-01-15T13:52:12;7.80;80.00
42097;DHT22;27754;45.414;11.084;2024-01-15T13:54:40;7.80;80.10
42097;DHT22;27754;45.414;11.084;2024-01-15T13:57:19;7.80;80.40
42097;DHT22;27754;45.414;11.084;2024-01-15T13:59:47;7.80;80.50
42097;DHT22;27754;45.414;11.084;2024-01-15T14:02:16;7.80;80.60
42097;DHT22;27754;45.414;11.084;2024-01-15T14:04:48;7.90;80.70
42097;DHT22;27754;45.414;11.084;2024-01-15T14:07:16;7.90;80.90
42097;DHT22;27754;45.414;11.084;2024-01-15T14:09:43;7.90;81.10
42097;DHT22;27754;45.414;11.084;2024-01-15T14:12:10;7.90;81.00
42097;DHT22;27754;45.414;11.084;2024-01-15T14:14:38;7.80;81.10
42097;DHT22;27754;45.414;11.084;2024-01-15T14:17:06;7.90;81.30
42097;DHT22;27754;45.414;11.084;2024-01-15T14:19:33;7.90;81.10
42097;DHT22;27754;45.414;11.084;2024-01-15T14:22:01;7.90;81.20
42097;DHT22;27754;45.414;11.084;2024-01-15T14:24:28;7.80;81.10
42097;DHT22;27754;45.414;11.084;2024-01-15T14:26:55;7.80;81.10
42097;DHT22;27754;45.414;11.084;2024-01-15T14:29:23;7.80;81.10
42097;DHT22;27754;45.414;11.084;2024-01-15T14:31:53;7.80;81.10
42097;DHT22;27754;45.414;11.084;2024-01-15T14:34:20;7.70;81.20
42097;DHT22;27754;45.414;11.084;2024-01-15T14:36:50;7.70;81.00
42097;DHT22;27754;45.414;11.084;2024-01-15T14:39:22;7.60;81.00
42097;DHT22;27754;45.414;11.084;2024-01-15T14:41:49;7.50;81.20
42097;DHT22;27754;45.414;11.084;2024-01-15T14:44:16;7.50;81.50
42097;DHT22;27754;45.414;11.084;2024-01-15T14:46:43;7.40;81.70
42097;DHT22;27754;45.414;11.084;2024-01-15T14:49:10;7.40;81.80
42097;DHT22;27754;45.414;11.084;2024-01-15T14:51:38;7.30;82.20
42097;DHT22;27754;45.414;11.084;2024-01-15T14:54:05;7.30;82.40
42097;DHT22;27754;45.414;11.084;2024-01-15T14:56:32;7.20;82.70
42097;DHT22;27754;45.414;11.084;2024-01-15T14:58:59;7.20;82.80
42097;DHT22;27754;45.414;11.084;2024-01-15T15:01:26;7.10;83.10
42097;DHT22;27754;45.414;11.084;2024-01-15T15:03:54;7.10;83.20
42097;DHT22;27754;45.414;11.084;2024-01-15T15:06:21;7.00;83.50
42097;DHT22;27754;45.414;11.084;2024-01-15T15:08:48;7.00;83.80
42097;DHT22;27754;45.414;11.084;2024-01-15T15:11:15;7.00;84.10
42097;DHT22;27754;45.414;11.084;2024-01-15T15:13:42;6.90;84.40
42097;DHT22;27754;45.414;11.084;2024-01-15T15:16:12;6.80;84.60
42097;DHT22;27754;45.414;11.084;2024-01-15T15:18:41;6.80;84.80
42097;DHT22;27754;45.414;11.084;2024-01-15T15:21:10;6.80;85.00
42097;DHT22;27754;45.414;11.084;2024-01-15T15:23:41;6.70;85.00
42097;DHT22;27754;45.414;11.084;2024-01-15T15:26:08;6.70;85.30
42097;DHT22;27754;45.414;11.084;2024-01-15T15:28:35;6.70;85.40
42097;DHT22;27754;45.414;11.084;2024-01-15T15:31:05;6.80;85.10
42097;DHT22;27754;45.414;11.084;2024-01-15T15:33:35;6.80;85.00
42097;DHT22;27754;45.414;11.084;2024-01-15T15:36:03;6.70;84.90
42097;DHT22;27754;45.414;11.084;2024-01-15T15:38:32;6.70;84.90
42097;DHT22;27754;45.414;11.084;2024-01-15T15:41:00;6.50;85.10
42097;DHT22;27754;45.414;11.084;2024-01-15T15:43:27;6.40;85.30
42097;DHT22;27754;45.414;11.084;2024-01-15T15:45:55;6.30;85.70
42097;DHT22;27754;45.414;11.084;2024-01-15T15:48:23;6.20;85.90
42097;DHT22;27754;45.414;11.084;2024-01-15T15:50:51;6.10;86.00
42097;DHT22;27754;45.414;11.084;2024-01-15T15:53:21;6.10;86.40